METAR Data
IDs: Format: Raw Decoded Include TAF

Data at: 0114 UTC 23 Apr 2021

YPEA 230100Z 06007KT CAVOK 21/08 Q1020
YPEA 230030Z 07005KT 030V110 CAVOK 21/07 Q1020
YPEA 230000Z 11004KT CAVOK 19/08 Q1020
YPEA 222330Z 17003KT CAVOK 19/08 Q1020
YPEA 222300Z AUTO 18003KT 9999 // NCD 19/08 Q1019
YPEA 222230Z 05005KT 020V110 CAVOK 19/07 Q1019
YPEA 222200Z 08011KT CAVOK 19/08 Q1019
YPEA 222130Z 08012KT CAVOK 19/08 Q1019
YPEA 222100Z AUTO 08012KT 9999 // NCD 19/08 Q1019
YPEA 222030Z AUTO 08011KT 9999 // NCD 19/08 Q1019
YPEA 222000Z AUTO 08011KT 9999 // NCD 19/08 Q1019
YPEA 221930Z AUTO 08013KT 9999 // NCD 19/08 Q1019
YPEA 221900Z AUTO 08013KT 9999 // NCD 19/08 Q1019
YPEA 221830Z AUTO 08012KT 9999 // NCD 19/08 Q1019
YPEA 221800Z AUTO 08012KT 9999 // NCD 20/08 Q1019
YPEA 221730Z AUTO 08012KT 9999 // NCD 20/08 Q1020
YPEA 221700Z AUTO 08013KT 9999 // NCD 20/08 Q1020
YPEA 221630Z AUTO 08014KT 9999 // NCD 20/07 Q1020
YPEA 221600Z AUTO 08013KT 9999 // NCD 20/08 Q1020
YPEA 221530Z AUTO 08015KT 9999 // NCD 20/08 Q1020
YPEA 221500Z AUTO 08015KT 9999 // NCD 20/08 Q1020
YPEA 221430Z AUTO 08014KT 9999 // NCD 20/08 Q1020
YPEA 221400Z AUTO 09011KT 9999 // NCD 21/08 Q1021
YPEA 221330Z AUTO 09011KT 9999 // NCD 21/07 Q1021
YPEA 221300Z AUTO 09010KT 9999 // NCD 21/07 Q1021
YPEA 221230Z AUTO 10011KT 9999 // NCD 22/07 Q1021
YPEA 221200Z 11011KT CAVOK 22/06 Q1021
YPEA 221130Z 15005KT CAVOK 22/07 Q1021
YPEA 221100Z 17008KT CAVOK 22/07 Q1021
YPEA 221030Z 17006KT CAVOK 22/07 Q1021
YPEA 221000Z 16005KT CAVOK 22/07 Q1020
YPEA 220930Z 14006KT CAVOK 23/07 Q1020
YPEA 220900Z 11011KT CAVOK 24/07 Q1019
YPEA 220830Z 09007KT CAVOK 25/06 Q1019
YPEA 220800Z 07006KT CAVOK 25/06 Q1020
YPEA 220730Z 08007KT CAVOK 26/06 Q1020
YPEA 220700Z 09007KT CAVOK 26/06 Q1020
YPEA 220630Z 07007KT CAVOK 26/07 Q1020
YPEA 220600Z 06007KT CAVOK 26/07 Q1020
YPEA 220530Z 07008KT 050V110 CAVOK 26/07 Q1021
YPEA 220500Z 08008KT 050V110 CAVOK 25/07 Q1021
YPEA 220430Z 09011KT 040V100 CAVOK 25/08 Q1022
YPEA 220400Z 07007KT 030V110 CAVOK 23/08 Q1022
YPEA 220330Z 09012KT CAVOK 24/09 Q1023
YPEA 220300Z 06013KT CAVOK 23/08 Q1023
YPEA 220230Z 04012KT CAVOK 22/09 Q1023
YPEA 220200Z 07009KT CAVOK 21/09 Q1024
YPEA 220130Z 06006KT 040V110 CAVOK 20/09 Q1024
YPEA 220100Z 07009KT CAVOK 19/09 Q1024
YPEA 220030Z 09008KT CAVOK 18/10 Q1024
YPEA 220000Z 10007KT 070V130 CAVOK 17/10 Q1024
YPEA 212330Z 08006KT CAVOK 16/10 Q1024
YPEA 212300Z 09006KT CAVOK 16/10 Q1023
YPEA 212230Z 15003KT CAVOK 15/09 Q1023
YPEA 212200Z 13004KT 090V160 CAVOK 15/09 Q1023
YPEA 212130Z 12007KT CAVOK 16/09 Q1023
YPEA 212100Z AUTO 09006KT 040V120 9999 // NCD 16/10 Q1023
YPEA 212030Z AUTO 09005KT 050V120 9999 // NCD 16/09 Q1022
YPEA 212000Z AUTO 09007KT 9999 // NCD 16/09 Q1022
YPEA 211930Z AUTO 10006KT 9999 // NCD 16/09 Q1022
YPEA 211900Z AUTO 12003KT 9999 // NCD 16/08 Q1023
YPEA 211830Z AUTO 10007KT 040V110 9999 // NCD 17/09 Q1023
YPEA 211800Z AUTO 09006KT 9999 // NCD 17/08 Q1023
YPEA 211730Z AUTO 13007KT 9999 // NCD 17/07 Q1023
YPEA 211700Z AUTO 14007KT 9999 // NCD 17/07 Q1023
YPEA 211630Z AUTO 00000KT 9999 // NCD 14/06 Q1023
YPEA 211600Z AUTO 00000KT 9999 // NCD 16/07 Q1023
YPEA 211530Z AUTO 00000KT 9999 // NCD 15/07 Q1023
YPEA 211500Z AUTO 09004KT 9999 // NCD 17/07 Q1024
YPEA 211430Z 10003KT CAVOK 18/07 Q1024
YPEA 211400Z 09004KT CAVOK 19/06 Q1024
YPEA 211330Z 07005KT CAVOK 19/07 Q1024